Terminal Aerodrome Forecast
Issued by NWS Bismarck, ND

Home | Current Version | Previous Version | Graphics & Text | Print | Product List | Glossary On
Versions: 1 2 3 4 5 6 7 8 9 10 11 12 13 14 15 16 17 18 19 20 21 22
000
FTUS43 KBIS 111500 AAH
TAFBIS
TAF AMD
KBIS 111500Z 1115/1212 33019G28KT P6SM OVC020
      TEMPO 1115/1117 BKN018
     FM111700 33015G24KT P6SM OVC025
     FM120200 30010KT P6SM BKN030
     FM120600 28005KT P6SM OVC035=

USA.gov is the U.S. government's official web portal to all federal, state and local government web resources and services.